Time,TemperatureF,DewpointF,PressureIn,WindDirection,WindDirectionDegrees,WindSpeedMPH,WindSpeedGustMPH,Humidity,HourlyPrecipIn,Conditions,Clouds,dailyrainin,SoftwareType,DateUTC
2013-07-24 00:04:00,71.6,67.5,29.68,SW,225,1.0,0.0,87,0.00,,---,0.00,VWS V14.00,2013-07-24 05:04:00,
2013-07-24 00:09:00,71.4,67.7,29.68,SW,225,1.0,0.0,88,0.00,,---,0.00,VWS V14.00,2013-07-24 05:09:00,
2013-07-24 00:14:00,71.4,67.7,29.68,SW,225,1.0,0.0,88,0.00,,---,0.00,VWS V14.00,2013-07-24 05:14:00,
2013-07-24 00:19:00,71.4,67.7,29.68,SW,225,1.0,0.0,88,0.00,,---,0.00,VWS V14.00,2013-07-24 05:19:00,
2013-07-24 00:24:00,71.4,67.7,29.68,SW,225,1.0,0.0,88,0.00,,---,0.00,VWS V14.00,2013-07-24 05:24:00,
2013-07-24 00:29:00,71.4,67.7,29.68,SW,225,1.0,0.0,88,0.00,,---,0.00,VWS V14.00,2013-07-24 05:29:00,
2013-07-24 00:34:00,71.4,68.0,29.71,WSW,248,1.0,0.0,89,0.00,,---,0.00,VWS V14.00,2013-07-24 05:34:00,
2013-07-24 00:39:00,71.2,67.8,29.71,WSW,248,1.0,0.0,89,0.00,,---,0.00,VWS V14.00,2013-07-24 05:39:00,
2013-07-24 00:44:00,71.2,67.8,29.71,WSW,248,1.0,0.0,89,0.00,,---,0.00,VWS V14.00,2013-07-24 05:44:00,
2013-07-24 00:49:00,71.1,67.7,29.68,WSW,248,1.0,0.0,89,0.00,,---,0.00,VWS V14.00,2013-07-24 05:49:00,
2013-07-24 00:54:00,71.1,67.7,29.68,WSW,248,1.0,0.0,89,0.00,,---,0.00,VWS V14.00,2013-07-24 05:54:00,
2013-07-24 00:59:00,70.9,67.5,29.68,WSW,248,1.0,0.0,89,0.00,,---,0.00,VWS V14.00,2013-07-24 05:59:00,
2013-07-24 01:04:00,70.9,67.5,29.68,WSW,248,1.0,0.0,89,0.00,,---,0.00,VWS V14.00,2013-07-24 06:04:00,
2013-07-24 01:09:00,70.9,67.5,29.68,WSW,248,1.0,0.0,89,0.00,,---,0.00,VWS V14.00,2013-07-24 06:09:00,
2013-07-24 01:14:00,70.9,67.8,29.68,WSW,248,1.0,0.0,90,0.00,,---,0.00,VWS V14.00,2013-07-24 06:14:00,
2013-07-24 01:19:00,70.7,67.6,29.68,WSW,248,1.0,0.0,90,0.00,,---,0.00,VWS V14.00,2013-07-24 06:19:00,
2013-07-24 01:24:00,70.7,67.6,29.68,WSW,248,1.0,0.0,90,0.00,,---,0.00,VWS V14.00,2013-07-24 06:24:00,
2013-07-24 01:29:00,70.7,67.6,29.68,WSW,248,1.0,0.0,90,0.00,,---,0.00,VWS V14.00,2013-07-24 06:29:00,
2013-07-24 01:34:00,70.7,67.6,29.68,WSW,248,1.0,0.0,90,0.00,,---,0.00,VWS V14.00,2013-07-24 06:34:00,
2013-07-24 01:39:00,70.5,67.4,29.68,WSW,248,1.0,0.0,90,0.00,,---,0.00,VWS V14.00,2013-07-24 06:39:00,
2013-07-24 01:44:00,70.5,67.4,29.68,WSW,248,1.0,0.0,90,0.00,,---,0.00,VWS V14.00,2013-07-24 06:44:00,
2013-07-24 01:50:00,70.5,67.4,29.68,WSW,248,1.0,0.0,90,0.00,,---,0.00,VWS V14.00,2013-07-24 06:50:00,
2013-07-24 01:55:00,70.5,67.4,29.68,WSW,248,1.0,0.0,90,0.00,,---,0.00,VWS V14.00,2013-07-24 06:55:00,
2013-07-24 02:00:00,70.3,67.3,29.68,WSW,248,1.0,0.0,90,0.00,,---,0.00,VWS V14.00,2013-07-24 07:00:00,
2013-07-24 02:05:00,70.3,67.3,29.71,WSW,248,1.0,0.0,90,0.00,,---,0.00,VWS V14.00,2013-07-24 07:05:00,
2013-07-24 02:11:00,70.3,67.3,29.71,NW,315,2.7,2.7,90,0.00,,---,0.00,VWS V14.00,2013-07-24 07:11:00,
2013-07-24 02:18:00,70.2,67.1,29.71,NNW,338,1.0,1.3,90,0.00,,---,0.00,VWS V14.00,2013-07-24 07:18:00,
2013-07-24 02:23:00,70.2,67.1,29.71,NNW,338,1.0,0.0,90,0.00,,---,0.00,VWS V14.00,2013-07-24 07:23:00,
2013-07-24 02:28:00,70.2,67.1,29.71,NNW,338,2.4,2.4,90,0.00,,---,0.00,VWS V14.00,2013-07-24 07:28:00,
2013-07-24 02:33:00,70.2,67.1,29.68,NNW,338,1.0,0.0,90,0.00,,---,0.00,VWS V14.00,2013-07-24 07:33:00,
2013-07-24 02:38:00,70.2,67.1,29.68,NW,315,1.0,0.0,90,0.00,,---,0.00,VWS V14.00,2013-07-24 07:38:00,
2013-07-24 02:43:00,70.2,67.1,29.68,NW,315,1.0,2.5,90,0.00,,---,0.00,VWS V14.00,2013-07-24 07:43:00,
2013-07-24 02:48:00,70.2,67.1,29.68,NW,315,1.0,1.3,90,0.00,,---,0.00,VWS V14.00,2013-07-24 07:48:00,
2013-07-24 02:53:00,70.2,67.1,29.68,NW,315,2.1,2.1,90,0.00,,---,0.00,VWS V14.00,2013-07-24 07:53:00,
2013-07-24 02:58:00,70.2,67.4,29.68,NW,315,1.0,0.0,91,0.00,,---,0.00,VWS V14.00,2013-07-24 07:58:00,
2013-07-24 03:03:00,70.2,67.4,29.68,NW,315,1.0,0.0,91,0.00,,---,0.00,VWS V14.00,2013-07-24 08:03:00,
2013-07-24 03:08:00,70.2,67.4,29.68,NW,315,1.0,0.0,91,0.00,,---,0.00,VWS V14.00,2013-07-24 08:08:00,
2013-07-24 03:13:00,70.0,67.2,29.68,NW,315,1.0,0.0,91,0.00,,---,0.00,VWS V14.00,2013-07-24 08:13:00,
2013-07-24 03:18:00,70.0,67.2,29.68,NW,315,1.0,0.0,91,0.00,,---,0.00,VWS V14.00,2013-07-24 08:18:00,
2013-07-24 03:24:00,70.0,67.2,29.68,NW,315,1.0,0.0,91,0.00,,---,0.00,VWS V14.00,2013-07-24 08:24:00,
2013-07-24 03:30:00,70.0,67.2,29.68,NW,315,1.0,1.0,91,0.00,,---,0.00,VWS V14.00,2013-07-24 08:30:00,
2013-07-24 03:35:00,70.0,67.2,29.68,NW,315,1.0,0.0,91,0.00,,---,0.00,VWS V14.00,2013-07-24 08:35:00,
2013-07-24 03:40:00,70.0,67.2,29.68,NW,315,1.0,0.0,91,0.00,,---,0.00,VWS V14.00,2013-07-24 08:40:00,
2013-07-24 03:45:00,70.0,67.2,29.68,NW,315,1.0,0.0,91,0.00,,---,0.00,VWS V14.00,2013-07-24 08:45:00,
2013-07-24 03:50:00,70.0,67.2,29.65,NW,315,3.8,3.8,91,0.00,,---,0.00,VWS V14.00,2013-07-24 08:50:00,
2013-07-24 03:55:00,70.0,67.2,29.65,NW,315,1.0,2.0,91,0.00,,---,0.00,VWS V14.00,2013-07-24 08:55:00,
2013-07-24 04:00:00,70.0,67.2,29.65,NW,315,1.0,0.0,91,0.00,,---,0.00,VWS V14.00,2013-07-24 09:00:00,
2013-07-24 04:05:00,70.0,67.2,29.68,NW,315,1.0,0.0,91,0.00,,---,0.00,VWS V14.00,2013-07-24 09:05:00,
2013-07-24 04:10:00,70.0,67.2,29.68,NW,315,1.0,0.0,91,0.00,,---,0.00,VWS V14.00,2013-07-24 09:10:00,
2013-07-24 04:15:00,70.0,67.2,29.68,NW,315,1.0,0.0,91,0.00,,---,0.00,VWS V14.00,2013-07-24 09:15:00,
2013-07-24 04:20:00,70.0,67.2,29.68,NW,315,1.0,0.0,91,0.00,,---,0.00,VWS V14.00,2013-07-24 09:20:00,
2013-07-24 04:25:00,70.0,67.2,29.68,NW,315,1.0,0.0,91,0.00,,---,0.00,VWS V14.00,2013-07-24 09:25:00,
2013-07-24 04:30:00,70.0,67.2,29.68,NW,315,1.0,0.0,91,0.00,,---,0.00,VWS V14.00,2013-07-24 09:30:00,
2013-07-24 04:35:00,70.0,67.2,29.68,NW,315,1.0,0.0,91,0.00,,---,0.00,VWS V14.00,2013-07-24 09:35:00,
2013-07-24 04:40:00,70.0,67.2,29.68,NW,315,1.0,0.0,91,0.00,,---,0.00,VWS V14.00,2013-07-24 09:40:00,
2013-07-24 04:46:00,70.0,67.2,29.68,NW,315,2.1,2.1,91,0.00,,---,0.00,VWS V14.00,2013-07-24 09:46:00,
2013-07-24 04:51:00,70.0,67.2,29.68,NW,315,1.0,0.0,91,0.00,,---,0.00,VWS V14.00,2013-07-24 09:51:00,
2013-07-24 04:56:00,70.0,67.2,29.68,NW,315,1.0,0.0,91,0.00,,---,0.00,VWS V14.00,2013-07-24 09:56:00,
2013-07-24 05:02:00,70.0,67.2,29.68,NW,315,1.0,1.1,91,0.00,,---,0.00,VWS V14.00,2013-07-24 10:02:00,
2013-07-24 05:07:00,70.0,67.2,29.68,NW,315,2.7,2.7,91,0.00,,---,0.00,VWS V14.00,2013-07-24 10:07:00,
2013-07-24 05:13:00,70.0,67.2,29.68,NW,315,1.0,1.0,91,0.00,,---,0.00,VWS V14.00,2013-07-24 10:13:00,
2013-07-24 05:18:00,70.0,67.2,29.65,NW,315,1.0,0.0,91,0.00,,---,0.00,VWS V14.00,2013-07-24 10:18:00,
2013-07-24 05:23:00,70.0,67.2,29.65,NW,315,1.0,0.0,91,0.00,,---,0.00,VWS V14.00,2013-07-24 10:23:00,
2013-07-24 05:29:00,70.0,67.2,29.65,NW,315,1.0,0.0,91,0.00,,---,0.00,VWS V14.00,2013-07-24 10:29:00,
2013-07-24 05:34:00,70.0,67.2,29.68,NW,315,1.0,0.0,91,0.00,,---,0.00,VWS V14.00,2013-07-24 10:34:00,
2013-07-24 05:39:00,70.0,67.2,29.68,NW,315,2.1,2.1,91,0.00,,---,0.00,VWS V14.00,2013-07-24 10:39:00,
2013-07-24 05:44:00,70.0,67.2,29.68,NW,315,1.0,1.3,91,0.00,,---,0.00,VWS V14.00,2013-07-24 10:44:00,
2013-07-24 05:49:00,70.0,67.2,29.68,North,0,1.0,0.0,91,0.00,,---,0.00,VWS V14.00,2013-07-24 10:49:00,
2013-07-24 05:54:00,70.0,67.2,29.68,North,0,1.0,0.0,91,0.00,,---,0.00,VWS V14.00,2013-07-24 10:54:00,
2013-07-24 05:59:00,70.0,67.2,29.68,North,0,1.0,0.0,91,0.00,,---,0.00,VWS V14.00,2013-07-24 10:59:00,
2013-07-24 06:04:00,70.0,67.2,29.65,North,0,2.4,2.4,91,0.00,,---,0.00,VWS V14.00,2013-07-24 11:04:00,
2013-07-24 06:09:00,70.0,67.2,29.65,North,0,4.4,4.4,91,0.00,,---,0.00,VWS V14.00,2013-07-24 11:09:00,
2013-07-24 06:14:00,70.0,67.2,29.65,NNW,338,2.4,2.4,91,0.00,,---,0.00,VWS V14.00,2013-07-24 11:14:00,
2013-07-24 06:19:00,70.2,67.4,29.68,NW,315,1.0,1.1,91,0.00,,---,0.00,VWS V14.00,2013-07-24 11:19:00,
2013-07-24 06:24:00,70.2,67.4,29.68,NW,315,1.0,1.0,91,0.00,,---,0.00,VWS V14.00,2013-07-24 11:24:00,
2013-07-24 06:29:00,70.3,67.6,29.68,NW,315,1.0,0.0,91,0.00,,---,0.00,VWS V14.00,2013-07-24 11:29:00,
2013-07-24 06:34:00,70.3,67.6,29.68,West,270,1.0,0.0,91,0.00,,---,0.00,VWS V14.00,2013-07-24 11:34:00,
2013-07-24 06:40:00,70.5,67.8,29.68,NW,315,2.7,2.7,91,0.00,,---,0.00,VWS V14.00,2013-07-24 11:40:00,
2013-07-24 06:46:00,70.7,67.9,29.68,WNW,292,3.0,3.0,91,0.00,,---,0.00,VWS V14.00,2013-07-24 11:46:00,
2013-07-24 06:52:00,71.1,68.3,29.68,NW,315,3.0,3.0,91,0.00,,---,0.00,VWS V14.00,2013-07-24 11:52:00,
2013-07-24 06:57:00,71.2,68.5,29.68,WNW,292,3.0,3.0,91,0.00,,---,0.00,VWS V14.00,2013-07-24 11:57:00,
2013-07-24 07:02:00,71.4,68.3,29.68,NW,315,1.0,2.0,90,0.00,,---,0.00,VWS V14.00,2013-07-24 12:02:00,
2013-07-24 07:07:00,71.6,68.5,29.68,NW,315,1.0,1.0,90,0.00,,---,0.00,VWS V14.00,2013-07-24 12:07:00,
2013-07-24 07:13:00,71.8,68.7,29.68,NW,315,2.7,2.7,90,0.00,,---,0.00,VWS V14.00,2013-07-24 12:13:00,
2013-07-24 07:19:00,72.0,68.9,29.68,NW,315,3.0,3.0,90,0.00,,---,0.00,VWS V14.00,2013-07-24 12:19:00,
2013-07-24 07:24:00,72.5,69.4,29.68,NW,315,2.7,2.7,90,0.00,,---,0.00,VWS V14.00,2013-07-24 12:24:00,
2013-07-24 07:29:00,72.9,69.8,29.68,NW,315,2.1,2.1,90,0.00,,---,0.00,VWS V14.00,2013-07-24 12:29:00,
2013-07-24 07:34:00,73.4,70.0,29.68,NW,315,3.0,3.0,89,0.00,,---,0.00,VWS V14.00,2013-07-24 12:34:00,
2013-07-24 07:40:00,73.6,70.1,29.68,NE,45,2.7,3.1,89,0.00,,---,0.00,VWS V14.00,2013-07-24 12:40:00,
2013-07-24 07:45:00,73.9,70.5,29.68,NW,315,2.4,2.5,89,0.00,,---,0.00,VWS V14.00,2013-07-24 12:45:00,
2013-07-24 07:51:00,74.1,70.3,29.68,NNW,338,1.0,2.5,88,0.00,,---,0.00,VWS V14.00,2013-07-24 12:51:00,
2013-07-24 07:56:00,74.3,70.2,29.68,WNW,292,3.0,3.0,87,0.00,,---,0.00,VWS V14.00,2013-07-24 12:56:00,
2013-07-24 08:01:00,74.5,70.4,29.68,NW,315,2.1,2.1,87,0.00,,---,0.00,VWS V14.00,2013-07-24 13:01:00,
2013-07-24 08:06:00,74.8,70.7,29.68,West,270,1.0,1.3,87,0.00,,---,0.00,VWS V14.00,2013-07-24 13:06:00,
2013-07-24 08:11:00,75.0,70.9,29.68,West,270,1.0,1.0,87,0.00,,---,0.00,VWS V14.00,2013-07-24 13:11:00,
2013-07-24 08:16:00,75.4,71.2,29.68,West,270,1.0,1.3,87,0.00,,---,0.00,VWS V14.00,2013-07-24 13:16:00,
2013-07-24 08:21:00,75.6,71.4,29.71,SW,225,3.0,3.0,87,0.00,,---,0.00,VWS V14.00,2013-07-24 13:21:00,
2013-07-24 08:26:00,75.9,71.8,29.71,SW,225,2.7,2.7,87,0.00,,---,0.00,VWS V14.00,2013-07-24 13:26:00,
2013-07-24 08:31:00,76.3,72.1,29.71,SSW,202,2.4,2.7,87,0.00,,---,0.00,VWS V14.00,2013-07-24 13:31:00,
2013-07-24 08:36:00,76.6,72.1,29.68,SW,225,4.9,4.9,86,0.00,,---,0.00,VWS V14.00,2013-07-24 13:36:00,
2013-07-24 08:42:00,77.2,72.3,29.68,SW,225,3.0,3.0,85,0.00,,---,0.00,VWS V14.00,2013-07-24 13:42:00,
2013-07-24 08:48:00,77.7,72.8,29.68,WSW,248,3.0,3.0,85,0.00,,---,0.00,VWS V14.00,2013-07-24 13:48:00,
2013-07-24 08:53:00,77.9,72.7,29.68,SW,225,1.0,1.3,84,0.00,,---,0.00,VWS V14.00,2013-07-24 13:53:00,
2013-07-24 08:58:00,78.1,72.5,29.68,WSW,248,2.4,2.4,83,0.00,,---,0.00,VWS V14.00,2013-07-24 13:58:00,
2013-07-24 09:03:00,78.1,72.1,29.71,SW,225,4.1,4.1,82,0.00,,---,0.00,VWS V14.00,2013-07-24 14:03:00,
2013-07-24 09:08:00,77.9,71.6,29.71,West,270,1.0,2.0,81,0.00,,---,0.00,VWS V14.00,2013-07-24 14:08:00,
2013-07-24 09:13:00,77.9,71.6,29.71,SW,225,2.7,2.7,81,0.00,,---,0.00,VWS V14.00,2013-07-24 14:13:00,
2013-07-24 09:18:00,77.9,71.6,29.71,NW,315,4.4,4.4,81,0.00,,---,0.00,VWS V14.00,2013-07-24 14:18:00,
2013-07-24 09:23:00,78.3,71.6,29.71,NW,315,4.9,4.9,80,0.00,,---,0.00,VWS V14.00,2013-07-24 14:23:00,
2013-07-24 09:28:00,78.6,71.6,29.71,NW,315,4.1,4.1,79,0.00,,---,0.00,VWS V14.00,2013-07-24 14:28:00,
2013-07-24 09:33:00,79.0,71.9,29.71,NW,315,5.2,5.2,79,0.00,,---,0.00,VWS V14.00,2013-07-24 14:33:00,
2013-07-24 09:38:00,79.5,72.1,29.71,WSW,248,4.9,4.9,78,0.00,,---,0.00,VWS V14.00,2013-07-24 14:38:00,
2013-07-24 09:44:00,79.7,72.2,29.71,WNW,292,3.8,3.8,78,0.00,,---,0.00,VWS V14.00,2013-07-24 14:44:00,
2013-07-24 09:49:00,79.9,71.6,29.71,NNE,22,5.8,6.3,76,0.00,,---,0.00,VWS V14.00,2013-07-24 14:49:00,
2013-07-24 09:54:00,80.1,71.4,29.71,NNW,338,5.2,5.2,75,0.00,,---,0.00,VWS V14.00,2013-07-24 14:54:00,
2013-07-24 09:59:00,80.4,71.0,29.71,North,0,5.5,6.0,73,0.00,,---,0.00,VWS V14.00,2013-07-24 14:59:00,
2013-07-24 10:04:00,80.6,69.5,29.71,WNW,292,6.0,6.0,69,0.00,,---,0.00,VWS V14.00,2013-07-24 15:04:00,
2013-07-24 10:09:00,80.4,69.3,29.71,North,0,6.0,6.0,69,0.00,,---,0.00,VWS V14.00,2013-07-24 15:09:00,
2013-07-24 10:15:00,80.2,68.7,29.71,North,0,5.2,8.5,68,0.00,,---,0.00,VWS V14.00,2013-07-24 15:15:00,
2013-07-24 10:20:00,80.2,68.7,29.71,NNE,22,9.1,9.1,68,0.00,,---,0.00,VWS V14.00,2013-07-24 15:20:00,
2013-07-24 10:25:00,80.1,68.6,29.71,North,0,6.0,6.0,68,0.00,,---,0.00,VWS V14.00,2013-07-24 15:25:00,
2013-07-24 10:31:00,79.9,68.4,29.71,North,0,8.0,8.0,68,0.00,,---,0.00,VWS V14.00,2013-07-24 15:31:00,
2013-07-24 10:36:00,80.1,68.6,29.71,North,0,7.2,7.2,68,0.00,,---,0.00,VWS V14.00,2013-07-24 15:36:00,
2013-07-24 10:42:00,79.9,68.4,29.71,North,0,7.2,7.2,68,0.00,,---,0.00,VWS V14.00,2013-07-24 15:42:00,
2013-07-24 10:47:00,79.7,68.2,29.74,North,0,6.9,6.9,68,0.00,,---,0.00,VWS V14.00,2013-07-24 15:47:00,
2013-07-24 10:52:00,79.9,67.9,29.74,North,0,5.2,6.5,67,0.00,,---,0.00,VWS V14.00,2013-07-24 15:52:00,
2013-07-24 10:57:00,80.4,68.5,29.74,NE,45,7.7,7.7,67,0.00,,---,0.00,VWS V14.00,2013-07-24 15:57:00,
2013-07-24 11:03:00,80.8,68.8,29.74,NNW,338,10.0,10.0,67,0.00,,---,0.00,VWS V14.00,2013-07-24 16:03:00,
2013-07-24 11:09:00,81.5,69.5,29.74,NNE,22,7.7,7.7,67,0.00,,---,0.00,VWS V14.00,2013-07-24 16:09:00,
2013-07-24 11:14:00,81.5,68.6,29.74,North,0,7.7,7.7,65,0.00,,---,0.00,VWS V14.00,2013-07-24 16:14:00,
2013-07-24 11:19:00,81.9,68.9,29.74,North,0,8.3,8.3,65,0.00,,---,0.00,VWS V14.00,2013-07-24 16:19:00,
2013-07-24 11:24:00,81.9,68.9,29.74,North,0,11.9,11.9,65,0.00,,---,0.00,VWS V14.00,2013-07-24 16:24:00,
2013-07-24 11:29:00,81.9,68.0,29.74,North,0,8.6,8.6,63,0.00,,---,0.00,VWS V14.00,2013-07-24 16:29:00,
2013-07-24 11:34:00,81.9,68.5,29.74,NNW,338,8.3,8.3,64,0.00,,---,0.00,VWS V14.00,2013-07-24 16:34:00,
2013-07-24 11:40:00,81.9,68.0,29.74,NNE,22,10.5,10.5,63,0.00,,---,0.00,VWS V14.00,2013-07-24 16:40:00,
2013-07-24 11:46:00,81.7,67.9,29.74,NNW,338,9.1,9.1,63,0.00,,---,0.00,VWS V14.00,2013-07-24 16:46:00,
2013-07-24 11:51:00,82.0,68.2,29.74,North,0,4.9,4.9,63,0.00,,---,0.00,VWS V14.00,2013-07-24 16:51:00,
2013-07-24 11:56:00,82.4,68.1,29.74,North,0,8.0,8.0,62,0.00,,---,0.00,VWS V14.00,2013-07-24 16:56:00,
2013-07-24 12:01:00,82.6,67.8,29.74,NNW,338,4.4,7.4,61,0.00,,---,0.00,VWS V14.00,2013-07-24 17:01:00,
2013-07-24 12:06:00,83.1,68.3,29.74,NNW,338,4.9,7.6,61,0.00,,---,0.00,VWS V14.00,2013-07-24 17:06:00,
2013-07-24 12:11:00,82.9,67.2,29.74,North,0,10.5,10.5,59,0.00,,---,0.00,VWS V14.00,2013-07-24 17:11:00,
2013-07-24 12:16:00,82.8,67.5,29.74,North,0,9.1,9.1,60,0.00,,---,0.00,VWS V14.00,2013-07-24 17:16:00,
2013-07-24 12:21:00,82.6,66.8,29.74,NW,315,4.9,7.4,59,0.00,,---,0.00,VWS V14.00,2013-07-24 17:21:00,
2013-07-24 12:26:00,82.8,67.0,29.74,North,0,5.2,5.2,59,0.00,,---,0.00,VWS V14.00,2013-07-24 17:26:00,
2013-07-24 12:31:00,82.6,66.3,29.74,North,0,6.0,6.0,58,0.00,,---,0.00,VWS V14.00,2013-07-24 17:31:00,
2013-07-24 12:36:00,81.9,67.1,29.74,North,0,4.9,4.9,61,0.00,,---,0.00,VWS V14.00,2013-07-24 17:36:00,
2013-07-24 12:41:00,82.2,67.0,29.74,NW,315,4.6,4.6,60,0.00,,---,0.00,VWS V14.00,2013-07-24 17:41:00,
2013-07-24 12:46:00,82.0,66.8,29.74,North,0,7.7,7.7,60,0.00,,---,0.00,VWS V14.00,2013-07-24 17:46:00,
2013-07-24 12:51:00,81.3,66.6,29.74,North,0,6.3,6.3,61,0.00,,---,0.00,VWS V14.00,2013-07-24 17:51:00,
2013-07-24 12:56:00,81.0,66.7,29.74,North,0,4.4,5.4,62,0.00,,---,0.00,VWS V14.00,2013-07-24 17:56:00,
2013-07-24 13:02:00,80.1,66.8,29.74,North,0,8.3,8.3,64,0.00,,---,0.00,VWS V14.00,2013-07-24 18:02:00,
2013-07-24 13:08:00,79.9,67.1,29.74,North,0,5.5,6.3,65,0.00,,---,0.00,VWS V14.00,2013-07-24 18:08:00,
2013-07-24 13:13:00,80.2,67.9,29.74,North,0,6.3,6.3,66,0.00,,---,0.00,VWS V14.00,2013-07-24 18:13:00,
2013-07-24 13:18:00,80.2,67.9,29.74,NNW,338,3.0,4.3,66,0.00,,---,0.00,VWS V14.00,2013-07-24 18:18:00,
2013-07-24 13:23:00,80.8,68.4,29.74,NNW,338,2.4,3.6,66,0.00,,---,0.00,VWS V14.00,2013-07-24 18:23:00,
2013-07-24 13:28:00,81.5,69.1,29.74,North,0,5.2,5.2,66,0.00,,---,0.00,VWS V14.00,2013-07-24 18:28:00,
2013-07-24 13:33:00,82.4,69.5,29.74,North,0,9.1,9.1,65,0.00,,---,0.00,VWS V14.00,2013-07-24 18:33:00,
2013-07-24 13:39:00,83.3,69.9,29.74,NNW,338,4.9,4.9,64,0.00,,---,0.00,VWS V14.00,2013-07-24 18:39:00,
2013-07-24 13:44:00,83.8,69.9,29.74,NNE,22,6.3,6.3,63,0.00,,---,0.00,VWS V14.00,2013-07-24 18:44:00,
2013-07-24 13:49:00,84.6,70.1,29.74,North,0,3.5,3.5,62,0.00,,---,0.00,VWS V14.00,2013-07-24 18:49:00,
2013-07-24 13:54:00,84.4,69.0,29.74,North,0,9.1,9.1,60,0.00,,---,0.00,VWS V14.00,2013-07-24 18:54:00,
2013-07-24 13:59:00,83.8,68.0,29.74,NNW,338,5.2,5.2,59,0.00,,---,0.00,VWS V14.00,2013-07-24 18:59:00,
2013-07-24 14:04:00,83.8,68.0,29.74,North,0,5.5,5.5,59,0.00,,---,0.00,VWS V14.00,2013-07-24 19:04:00,
2013-07-24 14:10:00,84.0,67.7,29.74,NW,315,7.2,7.2,58,0.00,,---,0.00,VWS V14.00,2013-07-24 19:10:00,
2013-07-24 14:15:00,83.7,66.8,29.74,NNW,338,6.9,6.9,57,0.00,,---,0.00,VWS V14.00,2013-07-24 19:15:00,
2013-07-24 14:20:00,83.8,67.0,29.74,North,0,5.8,5.8,57,0.00,,---,0.00,VWS V14.00,2013-07-24 19:20:00,
2013-07-24 14:25:00,84.6,68.2,29.74,North,0,4.4,4.4,58,0.00,,---,0.00,VWS V14.00,2013-07-24 19:25:00,
2013-07-24 14:31:00,85.3,69.3,29.74,SE,135,3.8,3.8,59,0.00,,---,0.00,VWS V14.00,2013-07-24 19:31:00,
2013-07-24 14:36:00,85.3,68.3,29.74,NNW,338,3.5,3.6,57,0.00,,---,0.00,VWS V14.00,2013-07-24 19:36:00,
2013-07-24 14:41:00,85.5,67.5,29.74,North,0,6.3,6.3,55,0.00,,---,0.00,VWS V14.00,2013-07-24 19:41:00,
2013-07-24 14:46:00,85.6,67.6,29.74,North,0,3.5,4.3,55,0.00,,---,0.00,VWS V14.00,2013-07-24 19:46:00,
2013-07-24 14:51:00,85.6,67.6,29.74,North,0,6.0,6.0,55,0.00,,---,0.00,VWS V14.00,2013-07-24 19:51:00,
2013-07-24 14:56:00,85.8,67.8,29.74,North,0,5.5,7.4,55,0.00,,---,0.00,VWS V14.00,2013-07-24 19:56:00,
2013-07-24 15:01:00,85.8,68.3,29.74,NNE,22,10.0,10.0,56,0.00,,---,0.00,VWS V14.00,2013-07-24 20:01:00,
2013-07-24 15:06:00,85.3,67.3,29.74,NW,315,4.4,5.6,55,0.00,,---,0.00,VWS V14.00,2013-07-24 20:06:00,
2013-07-24 15:11:00,85.3,67.8,29.74,North,0,4.1,6.7,56,0.00,,---,0.00,VWS V14.00,2013-07-24 20:11:00,
2013-07-24 15:16:00,85.1,66.6,29.74,North,0,8.6,8.6,54,0.00,,---,0.00,VWS V14.00,2013-07-24 20:16:00,
2013-07-24 15:22:00,84.7,67.3,29.74,North,0,4.6,5.4,56,0.00,,---,0.00,VWS V14.00,2013-07-24 20:22:00,
2013-07-24 15:28:00,84.7,66.8,29.74,North,0,7.7,7.7,55,0.00,,---,0.00,VWS V14.00,2013-07-24 20:28:00,
2013-07-24 15:33:00,85.1,68.2,29.74,North,0,11.6,11.6,57,0.00,,---,0.00,VWS V14.00,2013-07-24 20:33:00,
2013-07-24 15:38:00,85.3,67.3,29.74,North,0,10.8,10.8,55,0.00,,---,0.00,VWS V14.00,2013-07-24 20:38:00,
2013-07-24 15:43:00,84.9,68.0,29.74,North,0,10.2,10.2,57,0.00,,---,0.00,VWS V14.00,2013-07-24 20:43:00,
2013-07-24 15:48:00,84.7,67.3,29.71,NNW,338,7.2,7.2,56,0.00,,---,0.00,VWS V14.00,2013-07-24 20:48:00,
2013-07-24 15:53:00,84.7,67.3,29.71,NNW,338,13.6,13.6,56,0.00,,---,0.00,VWS V14.00,2013-07-24 20:53:00,
2013-07-24 15:59:00,84.7,67.3,29.71,North,0,5.2,7.4,56,0.00,,---,0.00,VWS V14.00,2013-07-24 20:59:00,
2013-07-24 16:04:00,84.7,67.3,29.71,North,0,9.7,9.7,56,0.00,,---,0.00,VWS V14.00,2013-07-24 21:04:00,
2013-07-24 16:09:00,84.6,67.2,29.71,North,0,9.1,9.1,56,0.00,,---,0.00,VWS V14.00,2013-07-24 21:09:00,
2013-07-24 16:14:00,83.8,66.5,29.71,North,0,9.1,9.1,56,0.00,,---,0.00,VWS V14.00,2013-07-24 21:14:00,
2013-07-24 16:20:00,83.3,66.0,29.74,North,0,7.7,7.7,56,0.00,,---,0.00,VWS V14.00,2013-07-24 21:20:00,
2013-07-24 16:25:00,83.7,66.8,29.74,North,0,5.5,6.0,57,0.00,,---,0.00,VWS V14.00,2013-07-24 21:25:00,
2013-07-24 16:30:00,83.3,66.5,29.74,North,0,8.6,8.6,57,0.00,,---,0.00,VWS V14.00,2013-07-24 21:30:00,
2013-07-24 16:35:00,83.3,66.5,29.71,North,0,7.2,7.6,57,0.00,,---,0.00,VWS V14.00,2013-07-24 21:35:00,
2013-07-24 16:40:00,83.3,66.5,29.71,NNE,22,10.5,11.2,57,0.00,,---,0.00,VWS V14.00,2013-07-24 21:40:00,
2013-07-24 16:45:00,82.8,66.0,29.71,North,0,5.8,9.8,57,0.00,,---,0.00,VWS V14.00,2013-07-24 21:45:00,
2013-07-24 16:50:00,82.8,66.0,29.71,North,0,10.2,10.2,57,0.00,,---,0.00,VWS V14.00,2013-07-24 21:50:00,
2013-07-24 16:55:00,82.8,66.0,29.71,NNW,338,7.2,9.8,57,0.00,,---,0.00,VWS V14.00,2013-07-24 21:55:00,
2013-07-24 17:00:00,82.8,66.0,29.71,North,0,5.5,6.0,57,0.00,,---,0.00,VWS V14.00,2013-07-24 22:00:00,
2013-07-24 17:06:00,82.8,66.0,29.71,North,0,9.1,9.1,57,0.00,,---,0.00,VWS V14.00,2013-07-24 22:06:00,
2013-07-24 17:12:00,82.8,66.0,29.71,NW,315,8.8,8.8,57,0.00,,---,0.00,VWS V14.00,2013-07-24 22:12:00,
2013-07-24 17:17:00,82.6,64.8,29.71,NE,45,8.0,8.0,55,0.00,,---,0.00,VWS V14.00,2013-07-24 22:17:00,
2013-07-24 17:22:00,82.4,64.6,29.71,North,0,8.8,8.8,55,0.00,,---,0.00,VWS V14.00,2013-07-24 22:22:00,
2013-07-24 17:27:00,82.0,64.3,29.71,NNW,338,8.3,8.3,55,0.00,,---,0.00,VWS V14.00,2013-07-24 22:27:00,
2013-07-24 17:32:00,82.0,64.8,29.71,NNW,338,8.8,8.8,56,0.00,,---,0.00,VWS V14.00,2013-07-24 22:32:00,
2013-07-24 17:38:00,81.7,63.4,29.71,North,0,10.5,10.5,54,0.00,,---,0.00,VWS V14.00,2013-07-24 22:38:00,
2013-07-24 17:43:00,81.5,63.3,29.71,NNW,338,5.8,7.2,54,0.00,,---,0.00,VWS V14.00,2013-07-24 22:43:00,
2013-07-24 17:48:00,81.5,62.7,29.71,ESE,112,6.9,6.9,53,0.00,,---,0.00,VWS V14.00,2013-07-24 22:48:00,
2013-07-24 17:54:00,81.5,63.3,29.71,NNW,338,8.3,8.3,54,0.00,,---,0.00,VWS V14.00,2013-07-24 22:54:00,
2013-07-24 17:59:00,81.3,63.6,29.71,North,0,7.2,7.2,55,0.00,,---,0.00,VWS V14.00,2013-07-24 22:59:00,
2013-07-24 18:04:00,81.7,64.5,29.71,NNW,338,8.0,8.0,56,0.00,,---,0.00,VWS V14.00,2013-07-24 23:04:00,
2013-07-24 18:09:00,81.9,65.2,29.71,North,0,9.4,9.4,57,0.00,,---,0.00,VWS V14.00,2013-07-24 23:09:00,
2013-07-24 18:14:00,82.2,65.5,29.71,NNW,338,5.5,5.6,57,0.00,,---,0.00,VWS V14.00,2013-07-24 23:14:00,
2013-07-24 18:19:00,82.4,63.6,29.71,NNW,338,4.9,6.3,53,0.00,,---,0.00,VWS V14.00,2013-07-24 23:19:00,
2013-07-24 18:24:00,82.2,62.9,29.71,North,0,8.3,8.3,52,0.00,,---,0.00,VWS V14.00,2013-07-24 23:24:00,
2013-07-24 18:29:00,82.0,62.1,29.71,North,0,3.5,6.3,51,0.00,,---,0.00,VWS V14.00,2013-07-24 23:29:00,
2013-07-24 18:34:00,81.9,62.0,29.71,North,0,7.2,7.2,51,0.00,,---,0.00,VWS V14.00,2013-07-24 23:34:00,
2013-07-24 18:39:00,81.9,60.8,29.71,NW,315,8.6,8.6,49,0.00,,---,0.00,VWS V14.00,2013-07-24 23:39:00,
2013-07-24 18:44:00,81.7,61.2,29.71,NW,315,3.8,5.6,50,0.00,,---,0.00,VWS V14.00,2013-07-24 23:44:00,
2013-07-24 18:49:00,81.7,61.2,29.71,NW,315,6.3,6.3,50,0.00,,---,0.00,VWS V14.00,2013-07-24 23:49:00,
2013-07-24 18:54:00,81.5,61.7,29.71,North,0,7.7,7.7,51,0.00,,---,0.00,VWS V14.00,2013-07-24 23:54:00,
2013-07-24 18:59:00,81.1,61.3,29.71,NNW,338,6.9,6.9,51,0.00,,---,0.00,VWS V14.00,2013-07-24 23:59:00,
2013-07-24 19:04:00,81.0,61.7,29.71,North,0,8.8,8.8,52,0.00,,---,0.00,VWS V14.00,2013-07-25 00:04:00,
2013-07-24 19:09:00,80.8,60.4,29.71,North,0,7.7,7.7,50,0.00,,---,0.00,VWS V14.00,2013-07-25 00:09:00,
2013-07-24 19:14:00,80.6,60.3,29.71,NNW,338,5.2,5.2,50,0.00,,---,0.00,VWS V14.00,2013-07-25 00:14:00,
2013-07-24 19:19:00,80.6,60.8,29.74,North,0,10.0,10.0,51,0.00,,---,0.00,VWS V14.00,2013-07-25 00:19:00,
2013-07-24 19:24:00,80.8,61.0,29.74,NW,315,4.4,5.8,51,0.00,,---,0.00,VWS V14.00,2013-07-25 00:24:00,
2013-07-24 19:29:00,81.3,61.5,29.74,NNW,338,6.0,6.0,51,0.00,,---,0.00,VWS V14.00,2013-07-25 00:29:00,
2013-07-24 19:34:00,81.0,60.6,29.74,North,0,5.8,5.8,50,0.00,,---,0.00,VWS V14.00,2013-07-25 00:34:00,
2013-07-24 19:39:00,80.4,60.7,29.74,North,0,4.6,4.7,51,0.00,,---,0.00,VWS V14.00,2013-07-25 00:39:00,
2013-07-24 19:44:00,79.9,60.7,29.74,NW,315,5.2,5.2,52,0.00,,---,0.00,VWS V14.00,2013-07-25 00:44:00,
2013-07-24 19:49:00,79.5,60.4,29.74,NNW,338,4.6,4.6,52,0.00,,---,0.00,VWS V14.00,2013-07-25 00:49:00,
2013-07-24 19:54:00,79.2,60.6,29.74,North,0,4.6,4.6,53,0.00,,---,0.00,VWS V14.00,2013-07-25 00:54:00,
2013-07-24 19:59:00,78.8,60.8,29.74,NNW,338,2.7,2.7,54,0.00,,---,0.00,VWS V14.00,2013-07-25 00:59:00,
2013-07-24 20:04:00,78.4,60.4,29.71,North,0,5.5,5.5,54,0.00,,---,0.00,VWS V14.00,2013-07-25 01:04:00,
2013-07-24 20:09:00,78.1,60.6,29.71,North,0,4.4,4.4,55,0.00,,---,0.00,VWS V14.00,2013-07-25 01:09:00,
2013-07-24 20:14:00,77.7,60.8,29.71,North,0,3.8,3.8,56,0.00,,---,0.00,VWS V14.00,2013-07-25 01:14:00,
2013-07-24 20:19:00,77.4,61.0,29.74,North,0,2.7,2.7,57,0.00,,---,0.00,VWS V14.00,2013-07-25 01:19:00,
2013-07-24 20:24:00,77.0,61.1,29.74,North,0,3.0,3.0,58,0.00,,---,0.00,VWS V14.00,2013-07-25 01:24:00,
2013-07-24 20:29:00,76.6,61.2,29.74,North,0,3.0,3.0,59,0.00,,---,0.00,VWS V14.00,2013-07-25 01:29:00,
2013-07-24 20:34:00,76.3,61.4,29.74,North,0,3.0,3.0,60,0.00,,---,0.00,VWS V14.00,2013-07-25 01:34:00,
2013-07-24 20:39:00,76.1,61.2,29.74,North,0,3.0,3.0,60,0.00,,---,0.00,VWS V14.00,2013-07-25 01:39:00,
2013-07-24 20:44:00,75.7,61.3,29.74,North,0,2.7,2.7,61,0.00,,---,0.00,VWS V14.00,2013-07-25 01:44:00,
2013-07-24 20:49:00,75.6,61.2,29.74,North,0,2.1,2.1,61,0.00,,---,0.00,VWS V14.00,2013-07-25 01:49:00,
2013-07-24 20:54:00,75.4,61.5,29.74,North,0,1.0,0.0,62,0.00,,---,0.00,VWS V14.00,2013-07-25 01:54:00,
2013-07-24 21:00:00,75.0,61.6,29.74,North,0,1.0,0.0,63,0.00,,---,0.00,VWS V14.00,2013-07-25 02:00:00,
2013-07-24 21:06:00,74.7,61.7,29.74,North,0,1.0,0.0,64,0.00,,---,0.00,VWS V14.00,2013-07-25 02:06:00,
2013-07-24 21:11:00,74.5,61.5,29.74,North,0,1.0,0.0,64,0.00,,---,0.00,VWS V14.00,2013-07-25 02:11:00,
2013-07-24 21:17:00,74.3,61.8,29.74,North,0,1.0,0.0,65,0.00,,---,0.00,VWS V14.00,2013-07-25 02:17:00,
2013-07-24 21:22:00,74.1,61.6,29.74,North,0,2.4,2.4,65,0.00,,---,0.00,VWS V14.00,2013-07-25 02:22:00,
2013-07-24 21:27:00,73.9,61.9,29.74,North,0,2.7,2.7,66,0.00,,---,0.00,VWS V14.00,2013-07-25 02:27:00,
2013-07-24 21:32:00,73.8,61.7,29.76,North,0,2.7,2.7,66,0.00,,---,0.00,VWS V14.00,2013-07-25 02:32:00,
2013-07-24 21:37:00,73.6,62.0,29.76,North,0,3.0,3.0,67,0.00,,---,0.00,VWS V14.00,2013-07-25 02:37:00,
2013-07-24 21:42:00,73.4,62.2,29.76,North,0,2.4,2.4,68,0.00,,---,0.00,VWS V14.00,2013-07-25 02:42:00,
2013-07-24 21:47:00,73.2,62.5,29.76,North,0,1.0,1.1,69,0.00,,---,0.00,VWS V14.00,2013-07-25 02:47:00,
2013-07-24 21:52:00,73.0,62.3,29.76,North,0,1.0,0.0,69,0.00,,---,0.00,VWS V14.00,2013-07-25 02:52:00,
2013-07-24 21:57:00,72.9,62.5,29.76,North,0,1.0,0.0,70,0.00,,---,0.00,VWS V14.00,2013-07-25 02:57:00,
2013-07-24 22:02:00,72.5,62.2,29.76,North,0,1.0,0.0,70,0.00,,---,0.00,VWS V14.00,2013-07-25 03:02:00,
2013-07-24 22:08:00,72.1,62.2,29.76,North,0,1.0,0.0,71,0.00,,---,0.00,VWS V14.00,2013-07-25 03:08:00,
2013-07-24 22:13:00,72.0,62.0,29.76,North,0,3.0,3.0,71,0.00,,---,0.00,VWS V14.00,2013-07-25 03:13:00,
2013-07-24 22:20:00,71.8,62.3,29.76,North,0,1.0,1.0,72,0.00,,---,0.00,VWS V14.00,2013-07-25 03:20:00,
2013-07-24 22:25:00,71.8,62.7,29.76,North,0,1.0,0.0,73,0.00,,---,0.00,VWS V14.00,2013-07-25 03:25:00,
2013-07-24 22:30:00,71.6,62.5,29.76,North,0,2.4,2.4,73,0.00,,---,0.00,VWS V14.00,2013-07-25 03:30:00,
2013-07-24 22:35:00,71.6,62.5,29.76,North,0,1.0,0.0,73,0.00,,---,0.00,VWS V14.00,2013-07-25 03:35:00,
2013-07-24 22:40:00,71.6,62.1,29.76,North,0,2.4,2.4,72,0.00,,---,0.00,VWS V14.00,2013-07-25 03:40:00,
2013-07-24 22:45:00,72.0,62.5,29.76,NNW,338,2.7,2.7,72,0.00,,---,0.00,VWS V14.00,2013-07-25 03:45:00,
2013-07-24 22:50:00,72.1,62.2,29.76,NNW,338,2.4,2.4,71,0.00,,---,0.00,VWS V14.00,2013-07-25 03:50:00,
2013-07-24 22:55:00,72.1,62.2,29.76,NW,315,3.5,3.5,71,0.00,,---,0.00,VWS V14.00,2013-07-25 03:55:00,
2013-07-24 23:00:00,72.3,62.0,29.76,North,0,2.7,2.9,70,0.00,,---,0.00,VWS V14.00,2013-07-25 04:00:00,
2013-07-24 23:02:00,72.3,62.0,29.79,NW,315,3.0,3.0,70,0.00,,---,0.00,VWS V14.00,2013-07-25 04:02:00,
2013-07-24 23:03:00,72.3,62.0,29.79,NW,315,3.0,3.0,70,0.00,,---,0.00,VWS V14.00,2013-07-25 04:03:00,
2013-07-24 23:05:00,72.3,61.6,29.79,NW,315,4.4,4.4,69,0.00,,---,0.00,VWS V14.00,2013-07-25 04:05:00,
2013-07-24 23:06:00,72.3,61.6,29.79,NNE,22,1.0,2.7,69,0.00,,---,0.00,VWS V14.00,2013-07-25 04:06:00,
2013-07-24 23:11:00,72.5,61.8,29.79,NNW,338,2.4,2.9,69,0.00,,---,0.00,VWS V14.00,2013-07-25 04:11:00,
2013-07-24 23:14:00,72.3,61.6,29.79,NNW,338,2.4,2.4,69,0.00,,---,0.00,VWS V14.00,2013-07-25 04:14:00,
2013-07-24 23:19:00,72.3,61.2,29.79,NW,315,2.4,2.4,68,0.00,,---,0.00,VWS V14.00,2013-07-25 04:19:00,
2013-07-24 23:24:00,72.1,61.0,29.79,NW,315,1.0,1.3,68,0.00,,---,0.00,VWS V14.00,2013-07-25 04:24:00,
2013-07-24 23:29:00,72.0,60.8,29.79,NNW,338,1.0,1.6,68,0.00,,---,0.00,VWS V14.00,2013-07-25 04:29:00,
2013-07-24 23:34:00,72.0,60.8,29.79,North,0,2.1,2.1,68,0.00,,---,0.00,VWS V14.00,2013-07-25 04:34:00,
2013-07-24 23:39:00,71.8,60.2,29.79,North,0,2.7,2.7,67,0.00,,---,0.00,VWS V14.00,2013-07-25 04:39:00,
2013-07-24 23:45:00,71.6,60.1,29.79,North,0,2.1,2.1,67,0.00,,---,0.00,VWS V14.00,2013-07-25 04:45:00,
2013-07-24 23:50:00,71.4,60.3,29.79,North,0,1.0,1.6,68,0.00,,---,0.00,VWS V14.00,2013-07-25 04:50:00,
2013-07-24 23:55:00,71.2,60.2,29.79,North,0,4.4,4.4,68,0.00,,---,0.00,VWS V14.00,2013-07-25 04:55:00,